ETD185 OMAA-FSIA
Flight info
| Callsign | ETD185 |
|---|---|
| Flight time | 4h 17m |
| Altitude | 33000 |
| Route | KANIP N318 LAKLU/N0466F340 Q204 HAI R401 SUHIL/N0462F360 UM314 IMTIP DCT EPNOR T144 ROUTY ROUTY1D |
| Aircraft | A320/M-SDE3FGHIRWY/LB1 |
Departure
| Time | 2026-05-05 13:12 |
|---|---|
| Airport | Zayed International Airport (OMAA) |
Arrival
| Time | 2026-05-05 17:29 |
|---|---|
| Airport | Seychelles International Airport (FSIA) |
| Time | Latitude | Longitude | Altitude | Speed | Heading |
|---|---|---|---|---|---|
| 2026-05-05 13:01 | 24.44396 | 54.64461 | 66 ft | 1 kts | 358° |
| 2026-05-05 13:01 | 24.44376 | 54.64460 | 70 ft | 3 kts | 10° |
| 2026-05-05 13:01 | 24.44356 | 54.64454 | 69 ft | 3 kts | 25° |
| 2026-05-05 13:01 | 24.44338 | 54.64443 | 70 ft | 3 kts | 38° |
| 2026-05-05 13:02 | 24.44323 | 54.64428 | 66 ft | 3 kts | 54° |
| 2026-05-05 13:02 | 24.44313 | 54.64409 | 65 ft | 3 kts | 82° |
| 2026-05-05 13:02 | 24.44314 | 54.64392 | 71 ft | 1 kts | 128° |
| 2026-05-05 13:02 | 24.44317 | 54.64388 | 70 ft | 0 kts | 128° |
| 2026-05-05 13:05 | 24.44312 | 54.64394 | 71 ft | 2 kts | 129° |
| 2026-05-05 13:05 | 24.44303 | 54.64404 | 69 ft | 3 kts | 139° |
| 2026-05-05 13:05 | 24.44283 | 54.64415 | 68 ft | 4 kts | 162° |
| 2026-05-05 13:05 | 24.44251 | 54.64407 | 76 ft | 6 kts | 206° |
| 2026-05-05 13:06 | 24.44204 | 54.64373 | 76 ft | 10 kts | 202° |
| 2026-05-05 13:06 | 24.44140 | 54.64410 | 72 ft | 13 kts | 128° |
| 2026-05-05 13:06 | 24.44080 | 54.64495 | 71 ft | 15 kts | 128° |
| 2026-05-05 13:06 | 24.44008 | 54.64596 | 69 ft | 18 kts | 128° |
| 2026-05-05 13:07 | 24.43926 | 54.64711 | 71 ft | 20 kts | 128° |
| 2026-05-05 13:07 | 24.43839 | 54.64833 | 72 ft | 21 kts | 128° |
| 2026-05-05 13:07 | 24.43749 | 54.64961 | 71 ft | 22 kts | 128° |
| 2026-05-05 13:07 | 24.43654 | 54.65093 | 69 ft | 22 kts | 128° |
| 2026-05-05 13:08 | 24.43557 | 54.65231 | 76 ft | 23 kts | 128° |
| 2026-05-05 13:08 | 24.43455 | 54.65373 | 74 ft | 24 kts | 128° |
| 2026-05-05 13:08 | 24.43351 | 54.65519 | 71 ft | 25 kts | 128° |
| 2026-05-05 13:08 | 24.43242 | 54.65674 | 74 ft | 26 kts | 128° |
| 2026-05-05 13:09 | 24.43128 | 54.65834 | 76 ft | 27 kts | 128° |
| 2026-05-05 13:09 | 24.43010 | 54.66001 | 76 ft | 28 kts | 128° |
| 2026-05-05 13:09 | 24.42887 | 54.66173 | 75 ft | 29 kts | 128° |
| 2026-05-05 13:09 | 24.42760 | 54.66352 | 71 ft | 30 kts | 128° |
| 2026-05-05 13:10 | 24.42629 | 54.66538 | 73 ft | 31 kts | 128° |
| 2026-05-05 13:10 | 24.42494 | 54.66728 | 71 ft | 30 kts | 128° |
| 2026-05-05 13:10 | 24.42421 | 54.66830 | 68 ft | 13 kts | 128° |
| 2026-05-05 13:10 | 24.42342 | 54.66849 | 76 ft | 14 kts | 211° |
| 2026-05-05 13:11 | 24.42262 | 54.66780 | 72 ft | 16 kts | 218° |
| 2026-05-05 13:11 | 24.42204 | 54.66730 | 68 ft | 4 kts | 219° |
| 2026-05-05 13:11 | 24.42195 | 54.66687 | 68 ft | 9 kts | 288° |
| 2026-05-05 13:11 | 24.42285 | 54.66558 | 72 ft | 46 kts | 309° |
| 2026-05-05 13:12 | 24.42606 | 54.66104 | 76 ft | 102 kts | 308° |
| 2026-05-05 13:12 | 24.43139 | 54.65354 | 74 ft | 146 kts | 308° |
| 2026-05-05 13:12 | 24.43828 | 54.64384 | 287 ft | 164 kts | 308° |
| 2026-05-05 13:12 | 24.44533 | 54.63402 | 834 ft | 164 kts | 310° |
| 2026-05-05 13:13 | 24.45234 | 54.62416 | 1303 ft | 165 kts | 310° |
| 2026-05-05 13:13 | 24.45944 | 54.61414 | 1760 ft | 168 kts | 310° |
| 2026-05-05 13:13 | 24.46680 | 54.60377 | 1947 ft | 179 kts | 309° |
| 2026-05-05 13:13 | 24.47467 | 54.59269 | 2074 ft | 194 kts | 310° |
| 2026-05-05 13:14 | 24.48330 | 54.58050 | 2209 ft | 211 kts | 310° |
| 2026-05-05 13:14 | 24.49276 | 54.56718 | 2328 ft | 231 kts | 310° |
| 2026-05-05 13:14 | 24.50274 | 54.55312 | 2801 ft | 234 kts | 310° |
| 2026-05-05 13:14 | 24.51279 | 54.53891 | 3350 ft | 236 kts | 310° |
| 2026-05-05 13:15 | 24.52292 | 54.52458 | 3922 ft | 238 kts | 309° |
| 2026-05-05 13:15 | 24.53311 | 54.51014 | 4466 ft | 240 kts | 309° |
| 2026-05-05 13:15 | 24.54336 | 54.49560 | 5025 ft | 241 kts | 309° |
| 2026-05-05 13:15 | 24.55350 | 54.48123 | 5628 ft | 241 kts | 309° |
| 2026-05-05 13:16 | 24.56396 | 54.46643 | 6189 ft | 243 kts | 309° |
| 2026-05-05 13:16 | 24.57424 | 54.45191 | 6723 ft | 245 kts | 309° |
| 2026-05-05 13:16 | 24.58479 | 54.43704 | 7252 ft | 248 kts | 309° |
| 2026-05-05 13:16 | 24.59738 | 54.42426 | 7779 ft | 247 kts | 333° |
| 2026-05-05 13:17 | 24.61378 | 54.41908 | 8326 ft | 248 kts | 0° |
| 2026-05-05 13:17 | 24.63059 | 54.42285 | 8817 ft | 251 kts | 27° |
| 2026-05-05 13:17 | 24.64468 | 54.43410 | 9382 ft | 254 kts | 47° |
| 2026-05-05 13:17 | 24.65423 | 54.45058 | 9858 ft | 262 kts | 69° |
| 2026-05-05 13:18 | 24.65720 | 54.47050 | 10275 ft | 270 kts | 92° |
| 2026-05-05 13:18 | 24.65443 | 54.49115 | 10758 ft | 275 kts | 97° |
| 2026-05-05 13:18 | 24.65129 | 54.51195 | 11278 ft | 277 kts | 98° |
| 2026-05-05 13:18 | 24.64820 | 54.53291 | 11818 ft | 279 kts | 98° |
| 2026-05-05 13:19 | 24.64508 | 54.55406 | 12318 ft | 282 kts | 98° |
| 2026-05-05 13:19 | 24.64193 | 54.57546 | 12817 ft | 285 kts | 98° |
| 2026-05-05 13:19 | 24.63877 | 54.59704 | 13308 ft | 288 kts | 98° |
| 2026-05-05 13:19 | 24.63558 | 54.61887 | 13777 ft | 290 kts | 98° |
| 2026-05-05 13:20 | 24.63200 | 54.64082 | 14239 ft | 292 kts | 102° |
| 2026-05-05 13:20 | 24.62740 | 54.66264 | 14664 ft | 295 kts | 103° |
| 2026-05-05 13:20 | 24.62234 | 54.68431 | 15075 ft | 298 kts | 104° |
| 2026-05-05 13:20 | 24.61702 | 54.70648 | 15517 ft | 301 kts | 104° |
| 2026-05-05 13:21 | 24.61160 | 54.72878 | 15960 ft | 303 kts | 107° |
| 2026-05-05 13:21 | 24.60404 | 54.75045 | 16364 ft | 306 kts | 116° |
| 2026-05-05 13:21 | 24.59368 | 54.77093 | 16755 ft | 309 kts | 124° |
| 2026-05-05 13:21 | 24.58068 | 54.78990 | 17168 ft | 311 kts | 132° |
| 2026-05-05 13:22 | 24.56549 | 54.80694 | 17583 ft | 313 kts | 137° |
| 2026-05-05 13:22 | 24.55504 | 54.81799 | 17892 ft | 314 kts | 137° |
| 2026-05-05 13:22 | 24.53928 | 54.83464 | 18306 ft | 316 kts | 137° |
| 2026-05-05 13:22 | 24.52335 | 54.85145 | 18625 ft | 320 kts | 137° |
| 2026-05-05 13:23 | 24.50734 | 54.86833 | 19004 ft | 321 kts | 137° |
| 2026-05-05 13:23 | 24.49094 | 54.88560 | 19329 ft | 326 kts | 137° |
| 2026-05-05 13:23 | 24.47447 | 54.90294 | 19665 ft | 329 kts | 137° |
| 2026-05-05 13:23 | 24.45801 | 54.92029 | 20087 ft | 329 kts | 137° |
| 2026-05-05 13:24 | 24.44145 | 54.93774 | 20459 ft | 331 kts | 137° |
| 2026-05-05 13:24 | 24.42503 | 54.95504 | 20873 ft | 331 kts | 137° |
| 2026-05-05 13:24 | 24.40830 | 54.97264 | 21176 ft | 336 kts | 137° |
| 2026-05-05 13:24 | 24.39142 | 54.99042 | 21515 ft | 337 kts | 137° |
| 2026-05-05 13:25 | 24.37436 | 55.00837 | 21831 ft | 340 kts | 137° |
| 2026-05-05 13:25 | 24.35724 | 55.02637 | 22200 ft | 342 kts | 137° |
| 2026-05-05 13:25 | 24.34005 | 55.04450 | 22538 ft | 343 kts | 135° |
| 2026-05-05 13:25 | 24.32425 | 55.06419 | 22865 ft | 346 kts | 127° |
| 2026-05-05 13:26 | 24.31074 | 55.08613 | 23159 ft | 349 kts | 120° |
| 2026-05-05 13:26 | 24.29888 | 55.10954 | 23443 ft | 351 kts | 119° |
| 2026-05-05 13:26 | 24.28692 | 55.13300 | 23703 ft | 353 kts | 120° |
| 2026-05-05 13:26 | 24.27480 | 55.15656 | 23966 ft | 355 kts | 120° |
| 2026-05-05 13:27 | 24.26276 | 55.17989 | 24205 ft | 358 kts | 120° |
| 2026-05-05 13:27 | 24.25047 | 55.20368 | 24454 ft | 360 kts | 120° |
| 2026-05-05 13:27 | 24.23810 | 55.22765 | 24709 ft | 362 kts | 120° |
| 2026-05-05 13:27 | 24.22568 | 55.25178 | 24961 ft | 364 kts | 120° |
| 2026-05-05 13:28 | 24.21320 | 55.27599 | 25230 ft | 366 kts | 120° |
| 2026-05-05 13:28 | 24.20064 | 55.30036 | 25459 ft | 369 kts | 120° |
| 2026-05-05 13:28 | 24.18800 | 55.32491 | 25709 ft | 371 kts | 120° |
| 2026-05-05 13:28 | 24.17587 | 55.34993 | 25958 ft | 373 kts | 115° |
| 2026-05-05 13:29 | 24.16568 | 55.37613 | 26215 ft | 375 kts | 114° |
| 2026-05-05 13:29 | 24.15556 | 55.40259 | 26457 ft | 378 kts | 114° |
| 2026-05-05 13:29 | 24.14535 | 55.42920 | 26693 ft | 380 kts | 114° |
| 2026-05-05 13:29 | 24.13507 | 55.45594 | 26937 ft | 382 kts | 114° |
| 2026-05-05 13:30 | 24.12489 | 55.48244 | 27181 ft | 384 kts | 114° |
| 2026-05-05 13:30 | 24.11450 | 55.50943 | 27425 ft | 386 kts | 114° |
| 2026-05-05 13:30 | 24.10388 | 55.53696 | 27650 ft | 389 kts | 114° |
| 2026-05-05 13:30 | 24.09346 | 55.56393 | 27877 ft | 391 kts | 114° |
| 2026-05-05 13:31 | 24.08286 | 55.59142 | 28109 ft | 393 kts | 114° |
| 2026-05-05 13:31 | 24.07223 | 55.61901 | 28350 ft | 395 kts | 114° |
| 2026-05-05 13:31 | 24.06147 | 55.64673 | 28588 ft | 397 kts | 115° |
| 2026-05-05 13:31 | 24.04977 | 55.67415 | 28795 ft | 399 kts | 118° |
| 2026-05-05 13:32 | 24.03710 | 55.70124 | 29033 ft | 401 kts | 120° |
| 2026-05-05 13:32 | 24.02388 | 55.72813 | 29272 ft | 402 kts | 121° |
| 2026-05-05 13:32 | 24.01044 | 55.75511 | 29517 ft | 404 kts | 120° |
| 2026-05-05 13:32 | 23.99704 | 55.78222 | 29754 ft | 406 kts | 120° |
| 2026-05-05 13:33 | 23.98368 | 55.80959 | 29956 ft | 409 kts | 120° |
| 2026-05-05 13:33 | 23.97037 | 55.83721 | 30135 ft | 412 kts | 120° |
| 2026-05-05 13:33 | 23.95707 | 55.86509 | 30354 ft | 413 kts | 119° |
| 2026-05-05 13:33 | 23.94380 | 55.89303 | 30588 ft | 415 kts | 119° |
| 2026-05-05 13:34 | 23.93048 | 55.92111 | 30802 ft | 417 kts | 119° |
| 2026-05-05 13:34 | 23.91707 | 55.94928 | 30999 ft | 419 kts | 119° |
| 2026-05-05 13:34 | 23.90355 | 55.97760 | 31192 ft | 421 kts | 120° |
| 2026-05-05 13:34 | 23.89011 | 56.00569 | 31412 ft | 423 kts | 120° |
| 2026-05-05 13:35 | 23.87644 | 56.03423 | 31620 ft | 425 kts | 119° |
| 2026-05-05 13:35 | 23.86271 | 56.06289 | 31821 ft | 426 kts | 119° |
| 2026-05-05 13:35 | 23.84895 | 56.09159 | 32038 ft | 428 kts | 119° |
| 2026-05-05 13:35 | 23.83510 | 56.12043 | 32227 ft | 430 kts | 119° |
| 2026-05-05 13:36 | 23.82113 | 56.14949 | 32408 ft | 432 kts | 119° |
| 2026-05-05 13:36 | 23.80716 | 56.17858 | 32596 ft | 433 kts | 119° |
| 2026-05-05 13:36 | 23.79316 | 56.20780 | 32749 ft | 436 kts | 119° |
| 2026-05-05 13:36 | 23.77899 | 56.23726 | 32804 ft | 441 kts | 119° |
| 2026-05-05 13:37 | 23.74996 | 56.29741 | 32796 ft | 454 kts | 119° |
| 2026-05-05 13:37 | 23.72025 | 56.35889 | 32800 ft | 467 kts | 119° |
| 2026-05-05 13:38 | 23.68958 | 56.42248 | 32797 ft | 480 kts | 119° |
| 2026-05-05 13:38 | 23.65802 | 56.48774 | 32810 ft | 492 kts | 119° |
| 2026-05-05 13:39 | 23.62601 | 56.55400 | 32811 ft | 495 kts | 119° |
| 2026-05-05 13:39 | 23.59384 | 56.62049 | 32810 ft | 495 kts | 119° |
| 2026-05-05 13:40 | 23.56158 | 56.68690 | 32808 ft | 496 kts | 119° |
| 2026-05-05 13:40 | 23.52932 | 56.75332 | 32820 ft | 496 kts | 119° |
| 2026-05-05 13:41 | 23.49707 | 56.81972 | 32812 ft | 496 kts | 119° |
| 2026-05-05 13:41 | 23.46483 | 56.88610 | 32827 ft | 495 kts | 119° |
| 2026-05-05 13:42 | 23.43269 | 56.95188 | 32834 ft | 495 kts | 120° |
| 2026-05-05 13:42 | 23.41405 | 56.98319 | 32825 ft | 492 kts | 132° |
| 2026-05-05 13:42 | 23.38980 | 57.00905 | 32828 ft | 486 kts | 146° |
| 2026-05-05 13:43 | 23.36122 | 57.02829 | 32822 ft | 481 kts | 159° |
| 2026-05-05 13:43 | 23.32983 | 57.04010 | 32818 ft | 474 kts | 172° |
| 2026-05-05 13:43 | 23.29734 | 57.04420 | 32809 ft | 468 kts | 184° |
| 2026-05-05 13:43 | 23.26519 | 57.04084 | 32806 ft | 462 kts | 195° |
| 2026-05-05 13:44 | 23.20238 | 57.02592 | 32797 ft | 463 kts | 196° |
| 2026-05-05 13:44 | 23.13937 | 57.01105 | 32798 ft | 464 kts | 195° |
| 2026-05-05 13:45 | 23.07619 | 56.99621 | 32796 ft | 465 kts | 195° |
| 2026-05-05 13:45 | 23.01289 | 56.98136 | 32788 ft | 465 kts | 195° |
| 2026-05-05 13:46 | 22.94994 | 56.96654 | 32790 ft | 466 kts | 195° |
| 2026-05-05 13:46 | 22.88658 | 56.95168 | 32789 ft | 466 kts | 195° |
| 2026-05-05 13:47 | 22.82309 | 56.93690 | 32775 ft | 467 kts | 195° |
| 2026-05-05 13:47 | 22.75964 | 56.92210 | 32767 ft | 466 kts | 195° |
| 2026-05-05 13:48 | 22.69617 | 56.90724 | 32761 ft | 466 kts | 195° |
| 2026-05-05 13:48 | 22.63269 | 56.89231 | 32754 ft | 466 kts | 195° |
| 2026-05-05 13:49 | 22.56924 | 56.87741 | 32756 ft | 467 kts | 195° |
| 2026-05-05 13:49 | 22.50563 | 56.86260 | 32751 ft | 467 kts | 195° |
| 2026-05-05 13:50 | 22.44213 | 56.84781 | 32750 ft | 467 kts | 195° |
| 2026-05-05 13:50 | 22.37906 | 56.83307 | 32728 ft | 467 kts | 195° |
| 2026-05-05 13:51 | 22.31549 | 56.81822 | 32726 ft | 467 kts | 195° |
| 2026-05-05 13:51 | 22.25198 | 56.80346 | 32728 ft | 467 kts | 195° |
| 2026-05-05 13:52 | 22.18846 | 56.78871 | 32724 ft | 467 kts | 195° |
| 2026-05-05 13:52 | 22.12490 | 56.77395 | 32721 ft | 467 kts | 195° |
| 2026-05-05 13:53 | 22.06132 | 56.75920 | 32720 ft | 467 kts | 195° |
| 2026-05-05 13:53 | 21.99761 | 56.74443 | 32722 ft | 468 kts | 195° |
| 2026-05-05 13:54 | 21.93400 | 56.72967 | 32721 ft | 468 kts | 195° |
| 2026-05-05 13:54 | 21.87036 | 56.71488 | 32721 ft | 468 kts | 195° |
| 2026-05-05 13:55 | 21.80668 | 56.70020 | 32714 ft | 468 kts | 195° |
| 2026-05-05 13:55 | 21.74299 | 56.68550 | 32718 ft | 468 kts | 195° |
| 2026-05-05 13:56 | 21.67920 | 56.67086 | 32721 ft | 469 kts | 195° |
| 2026-05-05 13:56 | 21.61587 | 56.65625 | 32723 ft | 469 kts | 195° |
| 2026-05-05 13:57 | 21.55206 | 56.64144 | 32722 ft | 469 kts | 195° |
| 2026-05-05 13:57 | 21.48830 | 56.62672 | 32724 ft | 469 kts | 195° |
| 2026-05-05 13:58 | 21.42447 | 56.61200 | 32726 ft | 469 kts | 195° |
| 2026-05-05 13:58 | 21.36065 | 56.59733 | 32727 ft | 469 kts | 195° |
| 2026-05-05 13:59 | 21.26488 | 56.57544 | 32727 ft | 469 kts | 195° |
| 2026-05-05 14:00 | 21.17983 | 56.55593 | 32729 ft | 469 kts | 195° |
| 2026-05-05 14:00 | 21.10561 | 56.53892 | 32733 ft | 469 kts | 195° |
| 2026-05-05 14:01 | 21.04176 | 56.52424 | 32737 ft | 469 kts | 195° |
| 2026-05-05 14:01 | 20.97790 | 56.50962 | 32732 ft | 469 kts | 194° |
| 2026-05-05 14:02 | 20.91395 | 56.49508 | 32734 ft | 470 kts | 194° |
| 2026-05-05 14:02 | 20.85001 | 56.48053 | 32735 ft | 470 kts | 194° |
| 2026-05-05 14:03 | 20.78609 | 56.46594 | 32738 ft | 470 kts | 194° |
| 2026-05-05 14:03 | 20.72213 | 56.45135 | 32740 ft | 470 kts | 194° |
| 2026-05-05 14:04 | 20.65818 | 56.43678 | 32739 ft | 470 kts | 194° |
| 2026-05-05 14:04 | 20.59419 | 56.42229 | 32743 ft | 470 kts | 194° |
| 2026-05-05 14:05 | 20.53021 | 56.40777 | 32745 ft | 470 kts | 194° |
| 2026-05-05 14:05 | 20.46621 | 56.39318 | 32745 ft | 470 kts | 194° |
| 2026-05-05 14:06 | 20.40224 | 56.37854 | 32738 ft | 470 kts | 194° |
| 2026-05-05 14:06 | 20.33867 | 56.36410 | 32742 ft | 471 kts | 194° |
| 2026-05-05 14:07 | 20.27453 | 56.34960 | 32744 ft | 471 kts | 194° |
| 2026-05-05 14:07 | 20.21045 | 56.33512 | 32748 ft | 471 kts | 194° |
| 2026-05-05 14:08 | 20.14632 | 56.32059 | 32748 ft | 471 kts | 194° |
| 2026-05-05 14:08 | 20.08224 | 56.30606 | 32748 ft | 471 kts | 194° |
| 2026-05-05 14:09 | 20.01812 | 56.29160 | 32748 ft | 471 kts | 194° |
| 2026-05-05 14:09 | 19.95405 | 56.27701 | 32750 ft | 470 kts | 195° |
| 2026-05-05 14:10 | 19.89058 | 56.26033 | 32751 ft | 470 kts | 197° |
| 2026-05-05 14:10 | 19.82784 | 56.24246 | 32751 ft | 470 kts | 197° |
| 2026-05-05 14:11 | 19.76460 | 56.22492 | 32744 ft | 470 kts | 196° |
| 2026-05-05 14:11 | 19.70120 | 56.20786 | 32746 ft | 470 kts | 196° |
| 2026-05-05 14:12 | 19.63769 | 56.19088 | 32748 ft | 470 kts | 196° |
| 2026-05-05 14:12 | 19.57429 | 56.17376 | 32751 ft | 470 kts | 196° |
| 2026-05-05 14:13 | 19.51082 | 56.15667 | 32745 ft | 470 kts | 195° |
| 2026-05-05 14:13 | 19.44733 | 56.13959 | 32746 ft | 470 kts | 196° |
| 2026-05-05 14:14 | 19.39458 | 56.12534 | 32747 ft | 470 kts | 196° |
| 2026-05-05 14:14 | 19.33111 | 56.10822 | 32751 ft | 471 kts | 196° |
| 2026-05-05 14:15 | 19.26768 | 56.09125 | 32752 ft | 471 kts | 196° |
| 2026-05-05 14:15 | 19.20415 | 56.07422 | 32748 ft | 471 kts | 195° |
| 2026-05-05 14:16 | 19.14067 | 56.05718 | 32751 ft | 471 kts | 195° |
| 2026-05-05 14:16 | 19.07719 | 56.04010 | 32751 ft | 471 kts | 195° |
| 2026-05-05 14:17 | 19.01364 | 56.02312 | 32755 ft | 471 kts | 195° |
| 2026-05-05 14:17 | 18.95011 | 56.00618 | 32754 ft | 471 kts | 195° |
| 2026-05-05 14:18 | 18.88663 | 55.98925 | 32742 ft | 471 kts | 196° |
| 2026-05-05 14:18 | 18.82343 | 55.97234 | 32732 ft | 472 kts | 196° |
| 2026-05-05 14:19 | 18.75971 | 55.95527 | 32743 ft | 473 kts | 195° |
| 2026-05-05 14:19 | 18.69590 | 55.93824 | 32743 ft | 473 kts | 196° |
| 2026-05-05 14:20 | 18.63202 | 55.92123 | 32760 ft | 473 kts | 195° |
| 2026-05-05 14:20 | 18.56802 | 55.90423 | 32766 ft | 473 kts | 196° |
| 2026-05-05 14:21 | 18.50445 | 55.88734 | 32774 ft | 474 kts | 196° |
| 2026-05-05 14:21 | 18.44051 | 55.87034 | 32775 ft | 474 kts | 195° |
| 2026-05-05 14:22 | 18.37656 | 55.85336 | 32769 ft | 474 kts | 195° |
| 2026-05-05 14:22 | 18.31255 | 55.83641 | 32777 ft | 474 kts | 195° |
| 2026-05-05 14:23 | 18.24859 | 55.81943 | 32778 ft | 474 kts | 196° |
| 2026-05-05 14:23 | 18.18461 | 55.80245 | 32788 ft | 474 kts | 195° |
| 2026-05-05 14:24 | 18.12056 | 55.78549 | 32784 ft | 474 kts | 196° |
| 2026-05-05 14:24 | 18.05693 | 55.76872 | 32792 ft | 474 kts | 195° |
| 2026-05-05 14:25 | 17.99291 | 55.75179 | 32796 ft | 474 kts | 194° |
| 2026-05-05 14:25 | 17.92749 | 55.74196 | 32790 ft | 475 kts | 188° |
| 2026-05-05 14:26 | 17.86179 | 55.73372 | 32800 ft | 475 kts | 188° |
| 2026-05-05 14:26 | 17.79621 | 55.72539 | 32795 ft | 475 kts | 188° |
| 2026-05-05 14:27 | 17.73061 | 55.71696 | 32793 ft | 474 kts | 188° |
| 2026-05-05 14:27 | 17.66511 | 55.70854 | 32790 ft | 474 kts | 188° |
| 2026-05-05 14:28 | 17.59961 | 55.70013 | 32786 ft | 474 kts | 188° |
| 2026-05-05 14:28 | 17.53451 | 55.69178 | 32785 ft | 474 kts | 188° |
| 2026-05-05 14:29 | 17.46900 | 55.68341 | 32783 ft | 474 kts | 188° |
| 2026-05-05 14:29 | 17.40349 | 55.67512 | 32779 ft | 474 kts | 187° |
| 2026-05-05 14:30 | 17.33791 | 55.66680 | 32779 ft | 474 kts | 188° |
| 2026-05-05 14:30 | 17.27239 | 55.65849 | 32774 ft | 475 kts | 188° |
| 2026-05-05 14:31 | 17.20671 | 55.65008 | 32782 ft | 475 kts | 187° |
| 2026-05-05 14:31 | 17.14115 | 55.64168 | 32785 ft | 475 kts | 188° |
| 2026-05-05 14:32 | 17.07549 | 55.63329 | 32784 ft | 476 kts | 188° |
| 2026-05-05 14:32 | 17.00974 | 55.62501 | 32797 ft | 476 kts | 188° |
| 2026-05-05 14:33 | 16.94396 | 55.61672 | 32795 ft | 476 kts | 188° |
| 2026-05-05 14:33 | 16.87820 | 55.60832 | 32803 ft | 476 kts | 187° |
| 2026-05-05 14:34 | 16.81242 | 55.60007 | 32804 ft | 476 kts | 187° |
| 2026-05-05 14:34 | 16.74704 | 55.59189 | 32807 ft | 476 kts | 187° |
| 2026-05-05 14:35 | 16.68135 | 55.58372 | 32815 ft | 475 kts | 187° |
| 2026-05-05 14:35 | 16.61565 | 55.57552 | 32808 ft | 475 kts | 188° |
| 2026-05-05 14:36 | 16.54990 | 55.56728 | 32809 ft | 476 kts | 187° |
| 2026-05-05 14:36 | 16.48418 | 55.55909 | 32816 ft | 476 kts | 187° |
| 2026-05-05 14:37 | 16.41888 | 55.55094 | 32813 ft | 476 kts | 187° |
| 2026-05-05 14:37 | 16.35309 | 55.54272 | 32827 ft | 476 kts | 187° |
| 2026-05-05 14:38 | 16.28732 | 55.53457 | 32827 ft | 475 kts | 187° |
| 2026-05-05 14:38 | 16.22161 | 55.52637 | 32823 ft | 475 kts | 187° |
| 2026-05-05 14:39 | 16.15592 | 55.51815 | 32833 ft | 475 kts | 187° |
| 2026-05-05 14:39 | 16.09068 | 55.51008 | 32830 ft | 475 kts | 187° |
| 2026-05-05 14:40 | 16.02498 | 55.50197 | 32826 ft | 475 kts | 187° |
| 2026-05-05 14:40 | 15.95946 | 55.49377 | 32828 ft | 474 kts | 187° |
| 2026-05-05 14:41 | 15.89390 | 55.48558 | 32818 ft | 474 kts | 187° |
| 2026-05-05 14:41 | 15.82832 | 55.47744 | 32826 ft | 474 kts | 187° |
| 2026-05-05 14:42 | 15.76271 | 55.46938 | 32820 ft | 474 kts | 187° |
| 2026-05-05 14:42 | 15.69721 | 55.46124 | 32834 ft | 474 kts | 187° |
| 2026-05-05 14:43 | 15.63199 | 55.45315 | 32829 ft | 474 kts | 187° |
| 2026-05-05 14:43 | 15.56649 | 55.44502 | 32830 ft | 474 kts | 187° |
| 2026-05-05 14:44 | 15.50094 | 55.43695 | 32832 ft | 474 kts | 187° |
| 2026-05-05 14:44 | 15.43543 | 55.42890 | 32825 ft | 474 kts | 187° |
| 2026-05-05 14:45 | 15.36991 | 55.42075 | 32829 ft | 474 kts | 187° |
| 2026-05-05 14:45 | 15.30438 | 55.41266 | 32828 ft | 474 kts | 187° |
| 2026-05-05 14:46 | 15.23894 | 55.40467 | 32839 ft | 473 kts | 187° |
| 2026-05-05 14:46 | 15.17365 | 55.39668 | 32832 ft | 472 kts | 187° |
| 2026-05-05 14:47 | 15.10877 | 55.38857 | 32834 ft | 472 kts | 187° |
| 2026-05-05 14:47 | 15.04356 | 55.38027 | 32836 ft | 472 kts | 187° |
| 2026-05-05 14:48 | 14.97848 | 55.37205 | 32830 ft | 471 kts | 187° |
| 2026-05-05 14:48 | 14.91349 | 55.36396 | 32839 ft | 470 kts | 187° |
| 2026-05-05 14:49 | 14.84850 | 55.35590 | 32839 ft | 470 kts | 187° |
| 2026-05-05 14:49 | 14.78354 | 55.34780 | 32839 ft | 470 kts | 187° |
| 2026-05-05 14:50 | 14.71865 | 55.33974 | 32837 ft | 469 kts | 187° |
| 2026-05-05 14:50 | 14.65424 | 55.33162 | 32837 ft | 469 kts | 187° |
| 2026-05-05 14:51 | 14.58945 | 55.32352 | 32837 ft | 469 kts | 187° |
| 2026-05-05 14:51 | 14.52474 | 55.31550 | 32836 ft | 468 kts | 187° |
| 2026-05-05 14:52 | 14.46000 | 55.30748 | 32840 ft | 469 kts | 187° |
| 2026-05-05 14:52 | 14.39526 | 55.29946 | 32836 ft | 468 kts | 187° |
| 2026-05-05 14:53 | 14.33051 | 55.29142 | 32848 ft | 468 kts | 187° |
| 2026-05-05 14:53 | 14.26584 | 55.28332 | 32852 ft | 468 kts | 187° |
| 2026-05-05 14:54 | 14.20158 | 55.27529 | 32851 ft | 468 kts | 187° |
| 2026-05-05 14:54 | 14.13692 | 55.26732 | 32852 ft | 468 kts | 187° |
| 2026-05-05 14:55 | 14.07221 | 55.25926 | 32841 ft | 468 kts | 187° |
| 2026-05-05 14:55 | 14.00751 | 55.25124 | 32851 ft | 468 kts | 187° |
| 2026-05-05 14:56 | 13.94285 | 55.24324 | 32839 ft | 468 kts | 187° |
| 2026-05-05 14:56 | 13.87811 | 55.23517 | 32846 ft | 468 kts | 187° |
| 2026-05-05 14:57 | 13.81395 | 55.22708 | 32845 ft | 468 kts | 187° |
| 2026-05-05 14:57 | 13.74934 | 55.21890 | 32847 ft | 468 kts | 187° |
| 2026-05-05 14:58 | 13.68481 | 55.21074 | 32843 ft | 467 kts | 187° |
| 2026-05-05 14:58 | 13.62019 | 55.20260 | 32842 ft | 467 kts | 187° |
| 2026-05-05 14:59 | 13.55552 | 55.19449 | 32837 ft | 468 kts | 187° |
| 2026-05-05 14:59 | 13.49089 | 55.18635 | 32844 ft | 468 kts | 187° |
| 2026-05-05 15:00 | 13.43717 | 55.17954 | 32852 ft | 468 kts | 187° |
| 2026-05-05 15:00 | 13.36201 | 55.17007 | 32856 ft | 468 kts | 187° |
| 2026-05-05 15:01 | 13.29733 | 55.16196 | 32857 ft | 468 kts | 187° |
| 2026-05-05 15:01 | 13.23268 | 55.15393 | 32854 ft | 468 kts | 186° |
| 2026-05-05 15:02 | 13.16808 | 55.14587 | 32867 ft | 467 kts | 186° |
| 2026-05-05 15:02 | 13.10352 | 55.13774 | 32869 ft | 467 kts | 186° |
| 2026-05-05 15:03 | 13.03906 | 55.12965 | 32867 ft | 466 kts | 186° |
| 2026-05-05 15:03 | 12.97466 | 55.12158 | 32865 ft | 466 kts | 186° |
| 2026-05-05 15:04 | 12.91030 | 55.11352 | 32866 ft | 466 kts | 186° |
| 2026-05-05 15:04 | 12.84597 | 55.10544 | 32861 ft | 465 kts | 186° |
| 2026-05-05 15:05 | 12.75000 | 55.09349 | 32861 ft | 465 kts | 186° |
| 2026-05-05 15:06 | 12.68581 | 55.08544 | 32865 ft | 465 kts | 186° |
| 2026-05-05 15:06 | 12.62157 | 55.07736 | 32861 ft | 465 kts | 186° |
| 2026-05-05 15:07 | 12.55736 | 55.06938 | 32867 ft | 465 kts | 186° |
| 2026-05-05 15:07 | 12.49312 | 55.06140 | 32866 ft | 465 kts | 186° |
| 2026-05-05 15:08 | 12.42883 | 55.05344 | 32869 ft | 465 kts | 186° |
| 2026-05-05 15:08 | 12.36456 | 55.04540 | 32870 ft | 465 kts | 186° |
| 2026-05-05 15:09 | 12.31118 | 55.03873 | 32869 ft | 465 kts | 186° |
| 2026-05-05 15:09 | 12.24697 | 55.03077 | 32868 ft | 465 kts | 185° |
| 2026-05-05 15:10 | 12.18270 | 55.02282 | 32865 ft | 465 kts | 186° |
| 2026-05-05 15:10 | 12.11842 | 55.01477 | 32864 ft | 465 kts | 186° |
| 2026-05-05 15:11 | 12.05411 | 55.00673 | 32878 ft | 466 kts | 186° |
| 2026-05-05 15:11 | 11.98974 | 54.99997 | 32865 ft | 465 kts | 179° |
| 2026-05-05 15:12 | 11.92510 | 54.99995 | 32870 ft | 465 kts | 179° |
| 2026-05-05 15:12 | 11.86046 | 54.99998 | 32874 ft | 464 kts | 179° |
| 2026-05-05 15:13 | 11.79625 | 54.99998 | 32874 ft | 464 kts | 179° |
| 2026-05-05 15:13 | 11.73160 | 54.99995 | 32866 ft | 464 kts | 179° |
| 2026-05-05 15:14 | 11.66697 | 55.00002 | 32873 ft | 464 kts | 179° |
| 2026-05-05 15:14 | 11.60240 | 55.00004 | 32870 ft | 464 kts | 179° |
| 2026-05-05 15:15 | 11.53787 | 54.99999 | 32870 ft | 464 kts | 179° |
| 2026-05-05 15:15 | 11.47330 | 54.99998 | 32870 ft | 464 kts | 179° |
| 2026-05-05 15:16 | 11.40874 | 55.00002 | 32868 ft | 464 kts | 179° |
| 2026-05-05 15:16 | 11.34417 | 54.99998 | 32868 ft | 463 kts | 179° |
| 2026-05-05 15:17 | 11.28011 | 54.99995 | 32874 ft | 463 kts | 179° |
| 2026-05-05 15:17 | 11.21557 | 54.99990 | 32873 ft | 463 kts | 179° |
| 2026-05-05 15:18 | 11.15109 | 54.99998 | 32879 ft | 463 kts | 179° |
| 2026-05-05 15:18 | 11.08656 | 55.00001 | 32886 ft | 463 kts | 179° |
| 2026-05-05 15:19 | 11.02209 | 54.99999 | 32874 ft | 463 kts | 179° |
| 2026-05-05 15:19 | 10.95763 | 54.99993 | 32886 ft | 463 kts | 179° |
| 2026-05-05 15:20 | 10.89318 | 54.99992 | 32884 ft | 463 kts | 179° |
| 2026-05-05 15:20 | 10.82875 | 54.99995 | 32883 ft | 463 kts | 179° |
| 2026-05-05 15:21 | 10.76479 | 55.00001 | 32872 ft | 462 kts | 179° |
| 2026-05-05 15:21 | 10.70035 | 55.00002 | 32875 ft | 462 kts | 179° |
| 2026-05-05 15:22 | 10.63603 | 55.00003 | 32874 ft | 462 kts | 179° |
| 2026-05-05 15:22 | 10.57177 | 54.99999 | 32875 ft | 462 kts | 179° |
| 2026-05-05 15:23 | 10.50748 | 54.99998 | 32870 ft | 462 kts | 179° |
| 2026-05-05 15:23 | 10.44348 | 55.00001 | 32868 ft | 462 kts | 179° |
| 2026-05-05 15:24 | 10.37926 | 54.99996 | 32865 ft | 462 kts | 179° |
| 2026-05-05 15:24 | 10.31499 | 54.99992 | 32865 ft | 461 kts | 179° |
| 2026-05-05 15:25 | 10.25069 | 55.00000 | 32866 ft | 461 kts | 179° |
| 2026-05-05 15:25 | 10.18649 | 55.00004 | 32870 ft | 461 kts | 179° |
| 2026-05-05 15:26 | 10.12224 | 55.00000 | 32868 ft | 461 kts | 179° |
| 2026-05-05 15:26 | 10.05803 | 55.00000 | 32866 ft | 461 kts | 179° |
| 2026-05-05 15:27 | 9.99381 | 55.00005 | 32861 ft | 461 kts | 179° |
| 2026-05-05 15:27 | 9.92962 | 55.00013 | 32867 ft | 461 kts | 179° |
| 2026-05-05 15:28 | 9.86553 | 55.00075 | 32977 ft | 457 kts | 176° |
| 2026-05-05 15:28 | 9.83323 | 55.00295 | 31837 ft | 474 kts | 176° |
| 2026-05-05 15:28 | 9.80049 | 55.00393 | 31608 ft | 458 kts | 178° |
| 2026-05-05 15:28 | 9.76965 | 55.00359 | 32383 ft | 442 kts | 181° |
| 2026-05-05 15:29 | 9.73895 | 55.00188 | 32794 ft | 443 kts | 182° |
| 2026-05-05 15:29 | 9.67636 | 54.99943 | 32855 ft | 457 kts | 180° |
| 2026-05-05 15:30 | 9.61238 | 54.99923 | 32859 ft | 461 kts | 178° |
| 2026-05-05 15:30 | 9.54813 | 54.99986 | 32868 ft | 461 kts | 178° |
| 2026-05-05 15:31 | 9.48389 | 55.00012 | 32866 ft | 462 kts | 179° |
| 2026-05-05 15:31 | 9.41955 | 55.00006 | 32867 ft | 462 kts | 179° |
| 2026-05-05 15:32 | 9.35530 | 55.00001 | 32866 ft | 462 kts | 179° |
| 2026-05-05 15:32 | 9.29150 | 55.00008 | 32867 ft | 462 kts | 179° |
| 2026-05-05 15:33 | 9.22725 | 55.00007 | 32864 ft | 462 kts | 179° |
| 2026-05-05 15:33 | 9.16293 | 54.99997 | 32862 ft | 462 kts | 179° |
| 2026-05-05 15:34 | 9.09865 | 54.99995 | 32862 ft | 462 kts | 179° |
| 2026-05-05 15:34 | 9.03434 | 54.99997 | 32861 ft | 462 kts | 179° |
| 2026-05-05 15:35 | 8.97007 | 55.00000 | 32863 ft | 462 kts | 179° |
| 2026-05-05 15:35 | 8.90576 | 55.00000 | 32868 ft | 462 kts | 179° |
| 2026-05-05 15:36 | 8.84145 | 55.00003 | 32866 ft | 462 kts | 179° |
| 2026-05-05 15:36 | 8.77723 | 55.00009 | 32867 ft | 462 kts | 179° |
| 2026-05-05 15:37 | 8.71290 | 55.00003 | 32871 ft | 462 kts | 179° |
| 2026-05-05 15:37 | 8.64865 | 54.99999 | 32876 ft | 461 kts | 179° |
| 2026-05-05 15:38 | 8.58482 | 55.00005 | 32872 ft | 461 kts | 179° |
| 2026-05-05 15:38 | 8.52059 | 55.00009 | 32872 ft | 461 kts | 179° |
| 2026-05-05 15:39 | 8.45644 | 55.00003 | 32871 ft | 461 kts | 179° |
| 2026-05-05 15:39 | 8.39227 | 54.99997 | 32873 ft | 461 kts | 179° |
| 2026-05-05 15:40 | 8.32812 | 54.99994 | 32877 ft | 461 kts | 179° |
| 2026-05-05 15:40 | 8.26394 | 54.99993 | 32873 ft | 461 kts | 179° |
| 2026-05-05 15:41 | 8.19976 | 55.00005 | 32882 ft | 461 kts | 179° |
| 2026-05-05 15:41 | 8.13605 | 55.00006 | 32876 ft | 461 kts | 179° |
| 2026-05-05 15:42 | 8.07187 | 55.00000 | 32883 ft | 461 kts | 179° |
| 2026-05-05 15:42 | 8.00775 | 55.00000 | 32883 ft | 461 kts | 179° |
| 2026-05-05 15:43 | 7.94356 | 54.99999 | 32883 ft | 461 kts | 179° |
| 2026-05-05 15:43 | 7.87938 | 55.00000 | 32883 ft | 461 kts | 179° |
| 2026-05-05 15:44 | 7.81524 | 55.00001 | 32878 ft | 461 kts | 179° |
| 2026-05-05 15:44 | 7.75113 | 55.00001 | 32882 ft | 461 kts | 179° |
| 2026-05-05 15:45 | 7.68696 | 54.99994 | 32884 ft | 461 kts | 179° |
| 2026-05-05 15:45 | 7.62285 | 54.99998 | 32885 ft | 461 kts | 179° |
| 2026-05-05 15:46 | 7.55910 | 55.00001 | 32885 ft | 461 kts | 179° |
| 2026-05-05 15:46 | 7.49498 | 54.99999 | 32886 ft | 461 kts | 179° |
| 2026-05-05 15:47 | 7.43084 | 55.00003 | 32883 ft | 461 kts | 179° |
| 2026-05-05 15:47 | 7.36676 | 55.00003 | 32882 ft | 460 kts | 179° |
| 2026-05-05 15:48 | 7.30268 | 55.00010 | 32887 ft | 460 kts | 179° |
| 2026-05-05 15:48 | 7.23859 | 55.00006 | 32885 ft | 460 kts | 179° |
| 2026-05-05 15:49 | 7.17452 | 54.99998 | 32880 ft | 460 kts | 179° |
| 2026-05-05 15:49 | 7.11048 | 55.00001 | 32881 ft | 460 kts | 179° |
| 2026-05-05 15:50 | 7.04645 | 55.00004 | 32886 ft | 460 kts | 179° |
| 2026-05-05 15:50 | 6.98248 | 55.00001 | 32881 ft | 460 kts | 179° |
| 2026-05-05 15:51 | 6.91855 | 54.99998 | 32885 ft | 460 kts | 179° |
| 2026-05-05 15:51 | 6.85459 | 55.00005 | 32885 ft | 459 kts | 179° |
| 2026-05-05 15:52 | 6.79109 | 55.00004 | 32890 ft | 459 kts | 179° |
| 2026-05-05 15:52 | 6.72720 | 55.00004 | 32894 ft | 459 kts | 179° |
| 2026-05-05 15:53 | 6.66330 | 55.00006 | 32898 ft | 459 kts | 179° |
| 2026-05-05 15:53 | 6.59942 | 55.00005 | 32901 ft | 459 kts | 179° |
| 2026-05-05 15:54 | 6.53552 | 55.00005 | 32896 ft | 459 kts | 179° |
| 2026-05-05 15:54 | 6.47163 | 55.00003 | 32901 ft | 458 kts | 179° |
| 2026-05-05 15:55 | 6.40780 | 55.00001 | 32899 ft | 458 kts | 179° |
| 2026-05-05 15:55 | 6.34400 | 55.00007 | 32896 ft | 458 kts | 179° |
| 2026-05-05 15:56 | 6.28024 | 55.00003 | 32893 ft | 458 kts | 179° |
| 2026-05-05 15:56 | 6.21640 | 55.00001 | 32887 ft | 458 kts | 179° |
| 2026-05-05 15:57 | 6.15261 | 55.00005 | 32896 ft | 458 kts | 179° |
| 2026-05-05 15:57 | 6.08882 | 55.00006 | 32898 ft | 458 kts | 179° |
| 2026-05-05 15:58 | 6.02539 | 55.00013 | 32898 ft | 458 kts | 179° |
| 2026-05-05 15:58 | 5.96167 | 55.00007 | 32892 ft | 458 kts | 179° |
| 2026-05-05 15:59 | 5.90864 | 54.99999 | 32896 ft | 458 kts | 179° |
| 2026-05-05 15:59 | 5.84485 | 55.00001 | 32902 ft | 458 kts | 179° |
| 2026-05-05 16:00 | 5.78109 | 55.00003 | 32898 ft | 458 kts | 179° |
| 2026-05-05 16:00 | 5.71733 | 55.00002 | 32900 ft | 458 kts | 179° |
| 2026-05-05 16:01 | 5.65349 | 55.00003 | 32901 ft | 458 kts | 179° |
| 2026-05-05 16:01 | 5.59006 | 55.00001 | 32896 ft | 458 kts | 179° |
| 2026-05-05 16:02 | 5.52628 | 54.99996 | 32894 ft | 458 kts | 179° |
| 2026-05-05 16:02 | 5.46253 | 54.99996 | 32892 ft | 458 kts | 179° |
| 2026-05-05 16:03 | 5.39874 | 55.00003 | 32902 ft | 458 kts | 179° |
| 2026-05-05 16:03 | 5.33496 | 55.00284 | 32897 ft | 458 kts | 175° |
| 2026-05-05 16:04 | 5.27149 | 55.00844 | 32900 ft | 458 kts | 174° |
| 2026-05-05 16:04 | 5.20807 | 55.01407 | 32908 ft | 457 kts | 175° |
| 2026-05-05 16:05 | 5.14464 | 55.01886 | 32907 ft | 457 kts | 175° |
| 2026-05-05 16:05 | 5.08124 | 55.02330 | 32909 ft | 456 kts | 175° |
| 2026-05-05 16:06 | 5.01786 | 55.02781 | 32900 ft | 456 kts | 175° |
| 2026-05-05 16:06 | 4.95456 | 55.03247 | 32903 ft | 456 kts | 175° |
| 2026-05-05 16:07 | 4.89167 | 55.03710 | 32901 ft | 456 kts | 175° |
| 2026-05-05 16:07 | 4.82836 | 55.04181 | 32901 ft | 456 kts | 175° |
| 2026-05-05 16:08 | 4.76501 | 55.04644 | 32902 ft | 456 kts | 175° |
| 2026-05-05 16:08 | 4.70167 | 55.05107 | 32900 ft | 456 kts | 175° |
| 2026-05-05 16:09 | 4.63837 | 55.05566 | 32903 ft | 456 kts | 175° |
| 2026-05-05 16:09 | 4.57512 | 55.06029 | 32904 ft | 456 kts | 175° |
| 2026-05-05 16:10 | 4.51184 | 55.06495 | 32908 ft | 456 kts | 175° |
| 2026-05-05 16:10 | 4.44862 | 55.06952 | 32911 ft | 455 kts | 175° |
| 2026-05-05 16:11 | 4.38588 | 55.07408 | 32907 ft | 455 kts | 175° |
| 2026-05-05 16:12 | 4.25954 | 55.08337 | 32911 ft | 455 kts | 175° |
| 2026-05-05 16:13 | 4.10179 | 55.09490 | 32909 ft | 455 kts | 175° |
| 2026-05-05 16:13 | 4.03868 | 55.09953 | 32911 ft | 455 kts | 175° |
| 2026-05-05 16:14 | 3.91241 | 55.10878 | 32909 ft | 455 kts | 175° |
| 2026-05-05 16:15 | 3.78659 | 55.11800 | 32910 ft | 455 kts | 175° |
| 2026-05-05 16:16 | 3.66035 | 55.12720 | 32914 ft | 454 kts | 175° |
| 2026-05-05 16:17 | 3.56581 | 55.13403 | 32910 ft | 454 kts | 174° |
| 2026-05-05 16:18 | 3.47124 | 55.14103 | 32914 ft | 454 kts | 174° |
| 2026-05-05 16:19 | 3.37666 | 55.14792 | 32914 ft | 454 kts | 175° |
| 2026-05-05 16:19 | 3.28221 | 55.15492 | 32912 ft | 454 kts | 174° |
| 2026-05-05 16:20 | 3.15661 | 55.16403 | 32909 ft | 453 kts | 175° |
| 2026-05-05 16:22 | 2.99935 | 55.17559 | 32910 ft | 453 kts | 175° |
| 2026-05-05 16:23 | 2.87405 | 55.18463 | 32904 ft | 453 kts | 175° |
| 2026-05-05 16:23 | 2.77986 | 55.19154 | 32902 ft | 452 kts | 175° |
| 2026-05-05 16:24 | 2.71702 | 55.19611 | 32903 ft | 452 kts | 175° |
| 2026-05-05 16:25 | 2.62285 | 55.20310 | 32902 ft | 452 kts | 175° |
| 2026-05-05 16:25 | 2.52866 | 55.20989 | 32904 ft | 452 kts | 175° |
| 2026-05-05 16:26 | 2.40342 | 55.21899 | 32908 ft | 453 kts | 175° |
| 2026-05-05 16:27 | 2.34050 | 55.22366 | 32908 ft | 453 kts | 175° |
| 2026-05-05 16:27 | 2.27750 | 55.22831 | 32908 ft | 453 kts | 175° |
| 2026-05-05 16:28 | 2.21462 | 55.23287 | 32909 ft | 453 kts | 175° |
| 2026-05-05 16:28 | 2.15176 | 55.23744 | 32910 ft | 453 kts | 175° |
| 2026-05-05 16:29 | 2.08886 | 55.24200 | 32914 ft | 454 kts | 175° |
| 2026-05-05 16:29 | 2.02583 | 55.24662 | 32916 ft | 454 kts | 175° |
| 2026-05-05 16:30 | 1.96285 | 55.25120 | 32920 ft | 454 kts | 175° |
| 2026-05-05 16:30 | 1.90018 | 55.25572 | 32919 ft | 453 kts | 175° |
| 2026-05-05 16:31 | 1.83727 | 55.26032 | 32913 ft | 454 kts | 175° |
| 2026-05-05 16:31 | 1.77430 | 55.26490 | 32909 ft | 454 kts | 175° |
| 2026-05-05 16:32 | 1.71130 | 55.26945 | 32904 ft | 454 kts | 175° |
| 2026-05-05 16:32 | 1.64827 | 55.27412 | 32903 ft | 455 kts | 175° |
| 2026-05-05 16:33 | 1.58511 | 55.27876 | 32905 ft | 455 kts | 175° |
| 2026-05-05 16:33 | 1.52187 | 55.28336 | 32905 ft | 456 kts | 175° |
| 2026-05-05 16:34 | 1.45853 | 55.28792 | 32906 ft | 456 kts | 175° |
| 2026-05-05 16:34 | 1.39566 | 55.29253 | 32911 ft | 456 kts | 175° |
| 2026-05-05 16:35 | 1.33229 | 55.29711 | 32915 ft | 457 kts | 175° |
| 2026-05-05 16:35 | 1.26868 | 55.29952 | 32920 ft | 457 kts | 178° |
| 2026-05-05 16:36 | 1.20501 | 55.30036 | 32926 ft | 458 kts | 178° |
| 2026-05-05 16:36 | 1.14126 | 55.30145 | 32924 ft | 458 kts | 178° |
| 2026-05-05 16:37 | 1.07754 | 55.30310 | 32930 ft | 458 kts | 177° |
| 2026-05-05 16:37 | 1.01387 | 55.30496 | 32929 ft | 458 kts | 177° |
| 2026-05-05 16:38 | 0.95063 | 55.30663 | 32925 ft | 458 kts | 178° |
| 2026-05-05 16:38 | 0.88690 | 55.30823 | 32922 ft | 458 kts | 178° |
| 2026-05-05 16:39 | 0.82314 | 55.30983 | 32923 ft | 458 kts | 178° |
| 2026-05-05 16:39 | 0.75925 | 55.31149 | 32928 ft | 459 kts | 178° |
| 2026-05-05 16:40 | 0.69547 | 55.31312 | 32931 ft | 458 kts | 178° |
| 2026-05-05 16:40 | 0.63172 | 55.31474 | 32930 ft | 458 kts | 178° |
| 2026-05-05 16:41 | 0.56794 | 55.31646 | 32928 ft | 459 kts | 177° |
| 2026-05-05 16:41 | 0.50412 | 55.31811 | 32930 ft | 459 kts | 177° |
| 2026-05-05 16:42 | 0.44031 | 55.31976 | 32933 ft | 459 kts | 177° |
| 2026-05-05 16:42 | 0.37649 | 55.32141 | 32934 ft | 459 kts | 177° |
| 2026-05-05 16:43 | 0.31264 | 55.32300 | 32933 ft | 459 kts | 177° |
| 2026-05-05 16:43 | 0.24925 | 55.32460 | 32930 ft | 458 kts | 177° |
| 2026-05-05 16:44 | 0.18546 | 55.32623 | 32927 ft | 458 kts | 177° |
| 2026-05-05 16:44 | 0.12169 | 55.32789 | 32926 ft | 458 kts | 177° |
| 2026-05-05 16:45 | 0.05785 | 55.32958 | 32923 ft | 460 kts | 177° |
| 2026-05-05 16:45 | -0.00642 | 55.33123 | 32902 ft | 460 kts | 177° |
| 2026-05-05 16:46 | -0.07060 | 55.33284 | 32924 ft | 461 kts | 177° |
| 2026-05-05 16:46 | -0.13479 | 55.33445 | 32917 ft | 462 kts | 177° |
| 2026-05-05 16:47 | -0.19907 | 55.33617 | 32922 ft | 462 kts | 177° |
| 2026-05-05 16:47 | -0.26282 | 55.33778 | 32918 ft | 461 kts | 177° |
| 2026-05-05 16:48 | -0.32704 | 55.33941 | 32920 ft | 461 kts | 177° |
| 2026-05-05 16:48 | -0.39122 | 55.34107 | 32922 ft | 462 kts | 177° |
| 2026-05-05 16:49 | -0.45539 | 55.34279 | 32919 ft | 461 kts | 177° |
| 2026-05-05 16:49 | -0.51958 | 55.34447 | 32920 ft | 461 kts | 177° |
| 2026-05-05 16:50 | -0.58377 | 55.34611 | 32914 ft | 460 kts | 177° |
| 2026-05-05 16:50 | -0.64780 | 55.34773 | 32919 ft | 460 kts | 177° |
| 2026-05-05 16:51 | -0.70097 | 55.34911 | 32919 ft | 460 kts | 177° |
| 2026-05-05 16:51 | -0.76494 | 55.35074 | 32915 ft | 460 kts | 177° |
| 2026-05-05 16:52 | -0.82862 | 55.35234 | 32920 ft | 460 kts | 177° |
| 2026-05-05 16:52 | -0.89268 | 55.35400 | 32923 ft | 460 kts | 177° |
| 2026-05-05 16:53 | -0.95630 | 55.35570 | 32927 ft | 460 kts | 177° |
| 2026-05-05 16:53 | -1.02037 | 55.35735 | 32932 ft | 460 kts | 177° |
| 2026-05-05 16:54 | -1.08446 | 55.35897 | 32934 ft | 460 kts | 177° |
| 2026-05-05 16:54 | -1.14864 | 55.36058 | 32931 ft | 460 kts | 177° |
| 2026-05-05 16:55 | -1.21262 | 55.36222 | 32936 ft | 460 kts | 177° |
| 2026-05-05 16:55 | -1.27669 | 55.36387 | 32935 ft | 460 kts | 177° |
| 2026-05-05 16:56 | -1.34074 | 55.36554 | 32936 ft | 460 kts | 177° |
| 2026-05-05 16:56 | -1.40431 | 55.36718 | 32937 ft | 460 kts | 177° |
| 2026-05-05 16:57 | -1.46830 | 55.36883 | 32933 ft | 460 kts | 177° |
| 2026-05-05 16:57 | -1.53228 | 55.37054 | 32931 ft | 459 kts | 177° |
| 2026-05-05 16:58 | -1.59625 | 55.37216 | 32933 ft | 459 kts | 177° |
| 2026-05-05 16:58 | -1.66010 | 55.37377 | 32932 ft | 459 kts | 177° |
| 2026-05-05 16:59 | -1.72396 | 55.37535 | 32929 ft | 458 kts | 177° |
| 2026-05-05 16:59 | -1.78782 | 55.37699 | 32924 ft | 458 kts | 177° |
| 2026-05-05 17:00 | -1.85156 | 55.37868 | 32924 ft | 458 kts | 177° |
| 2026-05-05 17:00 | -1.91499 | 55.38037 | 32925 ft | 458 kts | 177° |
| 2026-05-05 17:01 | -1.97879 | 55.38196 | 32930 ft | 459 kts | 177° |
| 2026-05-05 17:01 | -2.04260 | 55.38353 | 32931 ft | 459 kts | 177° |
| 2026-05-05 17:02 | -2.10639 | 55.38523 | 32923 ft | 459 kts | 177° |
| 2026-05-05 17:02 | -2.17015 | 55.38694 | 32926 ft | 458 kts | 177° |
| 2026-05-05 17:03 | -2.23397 | 55.38910 | 32932 ft | 458 kts | 176° |
| 2026-05-05 17:03 | -2.29782 | 55.39170 | 32930 ft | 458 kts | 176° |
| 2026-05-05 17:04 | -2.36113 | 55.39429 | 32921 ft | 458 kts | 176° |
| 2026-05-05 17:04 | -2.42484 | 55.39674 | 32927 ft | 458 kts | 176° |
| 2026-05-05 17:05 | -2.48856 | 55.39906 | 32919 ft | 458 kts | 176° |
| 2026-05-05 17:05 | -2.55226 | 55.40148 | 32922 ft | 458 kts | 176° |
| 2026-05-05 17:06 | -2.61602 | 55.40399 | 32923 ft | 458 kts | 176° |
| 2026-05-05 17:06 | -2.67978 | 55.40642 | 32919 ft | 458 kts | 176° |
| 2026-05-05 17:07 | -2.74358 | 55.40874 | 32917 ft | 459 kts | 176° |
| 2026-05-05 17:07 | -2.80735 | 55.41116 | 32758 ft | 458 kts | 176° |
| 2026-05-05 17:08 | -2.83881 | 55.41244 | 32515 ft | 459 kts | 176° |
| 2026-05-05 17:08 | -2.87073 | 55.41374 | 32270 ft | 459 kts | 176° |
| 2026-05-05 17:08 | -2.90264 | 55.41500 | 32031 ft | 459 kts | 176° |
| 2026-05-05 17:08 | -2.93458 | 55.41620 | 31789 ft | 460 kts | 177° |
| 2026-05-05 17:09 | -2.96666 | 55.41739 | 31551 ft | 461 kts | 177° |
| 2026-05-05 17:09 | -2.99870 | 55.41856 | 31320 ft | 461 kts | 177° |
| 2026-05-05 17:09 | -3.03079 | 55.41976 | 31082 ft | 462 kts | 177° |
| 2026-05-05 17:09 | -3.06295 | 55.42098 | 30851 ft | 462 kts | 177° |
| 2026-05-05 17:10 | -3.09513 | 55.42220 | 30622 ft | 463 kts | 177° |
| 2026-05-05 17:10 | -3.12739 | 55.42344 | 30379 ft | 463 kts | 177° |
| 2026-05-05 17:10 | -3.15957 | 55.42468 | 29641 ft | 463 kts | 177° |
| 2026-05-05 17:10 | -3.19156 | 55.42591 | 29027 ft | 458 kts | 178° |
| 2026-05-05 17:11 | -3.22325 | 55.42712 | 28400 ft | 453 kts | 178° |
| 2026-05-05 17:11 | -3.25460 | 55.42828 | 27774 ft | 449 kts | 178° |
| 2026-05-05 17:11 | -3.28569 | 55.42944 | 27159 ft | 445 kts | 178° |
| 2026-05-05 17:11 | -3.31652 | 55.43060 | 26549 ft | 442 kts | 178° |
| 2026-05-05 17:12 | -3.34716 | 55.43177 | 25939 ft | 439 kts | 178° |
| 2026-05-05 17:12 | -3.37753 | 55.43295 | 25338 ft | 436 kts | 178° |
| 2026-05-05 17:12 | -3.40777 | 55.43411 | 24740 ft | 434 kts | 178° |
| 2026-05-05 17:12 | -3.43783 | 55.43527 | 24155 ft | 431 kts | 179° |
| 2026-05-05 17:13 | -3.46739 | 55.43640 | 23581 ft | 429 kts | 178° |
| 2026-05-05 17:13 | -3.49710 | 55.43753 | 22956 ft | 426 kts | 179° |
| 2026-05-05 17:13 | -3.52654 | 55.43865 | 22410 ft | 421 kts | 179° |
| 2026-05-05 17:13 | -3.55562 | 55.43973 | 21890 ft | 416 kts | 179° |
| 2026-05-05 17:14 | -3.58439 | 55.44082 | 21374 ft | 412 kts | 179° |
| 2026-05-05 17:14 | -3.61294 | 55.44190 | 20872 ft | 409 kts | 179° |
| 2026-05-05 17:14 | -3.64126 | 55.44301 | 20367 ft | 406 kts | 179° |
| 2026-05-05 17:14 | -3.66949 | 55.44411 | 19852 ft | 405 kts | 179° |
| 2026-05-05 17:15 | -3.69755 | 55.44519 | 19336 ft | 403 kts | 179° |
| 2026-05-05 17:15 | -3.72557 | 55.44624 | 18807 ft | 402 kts | 179° |
| 2026-05-05 17:15 | -3.75346 | 55.44730 | 18269 ft | 401 kts | 179° |
| 2026-05-05 17:15 | -3.78138 | 55.44835 | 17661 ft | 400 kts | 179° |
| 2026-05-05 17:16 | -3.80912 | 55.44939 | 17102 ft | 397 kts | 179° |
| 2026-05-05 17:16 | -3.83658 | 55.45045 | 16543 ft | 394 kts | 179° |
| 2026-05-05 17:16 | -3.86356 | 55.45149 | 15979 ft | 391 kts | 179° |
| 2026-05-05 17:16 | -3.89067 | 55.45252 | 15418 ft | 388 kts | 179° |
| 2026-05-05 17:17 | -3.91761 | 55.45355 | 14850 ft | 386 kts | 179° |
| 2026-05-05 17:17 | -3.94432 | 55.45459 | 14350 ft | 382 kts | 179° |
| 2026-05-05 17:17 | -3.97065 | 55.45562 | 13865 ft | 377 kts | 179° |
| 2026-05-05 17:17 | -3.99659 | 55.45663 | 13530 ft | 367 kts | 180° |
| 2026-05-05 17:18 | -4.02165 | 55.45760 | 13400 ft | 353 kts | 180° |
| 2026-05-05 17:18 | -4.04570 | 55.45853 | 13270 ft | 339 kts | 180° |
| 2026-05-05 17:18 | -4.06888 | 55.45942 | 13143 ft | 327 kts | 180° |
| 2026-05-05 17:18 | -4.09125 | 55.46027 | 13016 ft | 316 kts | 180° |
| 2026-05-05 17:19 | -4.11294 | 55.46110 | 12813 ft | 309 kts | 180° |
| 2026-05-05 17:19 | -4.13432 | 55.46192 | 12501 ft | 306 kts | 180° |
| 2026-05-05 17:19 | -4.15552 | 55.46273 | 12161 ft | 304 kts | 180° |
| 2026-05-05 17:19 | -4.17661 | 55.46352 | 11825 ft | 302 kts | 180° |
| 2026-05-05 17:20 | -4.19757 | 55.46392 | 11495 ft | 301 kts | 182° |
| 2026-05-05 17:20 | -4.21845 | 55.46392 | 11167 ft | 299 kts | 182° |
| 2026-05-05 17:20 | -4.23893 | 55.46375 | 10809 ft | 299 kts | 183° |
| 2026-05-05 17:20 | -4.25977 | 55.46356 | 10408 ft | 300 kts | 183° |
| 2026-05-05 17:21 | -4.28064 | 55.46341 | 10061 ft | 299 kts | 182° |
| 2026-05-05 17:21 | -4.30147 | 55.46333 | 9735 ft | 298 kts | 182° |
| 2026-05-05 17:21 | -4.32215 | 55.46330 | 9380 ft | 296 kts | 182° |
| 2026-05-05 17:22 | -4.36461 | 55.46320 | 7932 ft | 318 kts | 181° |
| 2026-05-05 17:22 | -4.38703 | 55.46316 | 7107 ft | 322 kts | 181° |
| 2026-05-05 17:22 | -4.40907 | 55.46248 | 6452 ft | 310 kts | 190° |
| 2026-05-05 17:22 | -4.42823 | 55.45465 | 6008 ft | 292 kts | 217° |
| 2026-05-05 17:23 | -4.44145 | 55.44003 | 5594 ft | 278 kts | 233° |
| 2026-05-05 17:23 | -4.45241 | 55.42460 | 5197 ft | 265 kts | 234° |
| 2026-05-05 17:23 | -4.46280 | 55.40982 | 4829 ft | 254 kts | 234° |
| 2026-05-05 17:24 | -4.51222 | 55.39773 | 3614 ft | 195 kts | 143° |
| 2026-05-05 17:24 | -4.52274 | 55.40582 | 3310 ft | 186 kts | 141° |
| 2026-05-05 17:25 | -4.53262 | 55.41357 | 3048 ft | 176 kts | 142° |
| 2026-05-05 17:25 | -4.53899 | 55.41849 | 2878 ft | 166 kts | 142° |
| 2026-05-05 17:25 | -4.55077 | 55.42737 | 2589 ft | 155 kts | 143° |
| 2026-05-05 17:25 | -4.55920 | 55.43360 | 2451 ft | 145 kts | 142° |
| 2026-05-05 17:26 | -4.56742 | 55.43962 | 2307 ft | 146 kts | 142° |
| 2026-05-05 17:26 | -4.57564 | 55.44558 | 2108 ft | 146 kts | 142° |
| 2026-05-05 17:26 | -4.58375 | 55.45143 | 1929 ft | 140 kts | 142° |
| 2026-05-05 17:26 | -4.59165 | 55.45707 | 1748 ft | 138 kts | 143° |
| 2026-05-05 17:27 | -4.59948 | 55.46266 | 1566 ft | 138 kts | 143° |
| 2026-05-05 17:27 | -4.60728 | 55.46821 | 1394 ft | 137 kts | 143° |
| 2026-05-05 17:27 | -4.61504 | 55.47373 | 1234 ft | 137 kts | 143° |
| 2026-05-05 17:27 | -4.62267 | 55.47911 | 1105 ft | 136 kts | 143° |
| 2026-05-05 17:28 | -4.63044 | 55.48458 | 985 ft | 137 kts | 144° |
| 2026-05-05 17:28 | -4.63892 | 55.48901 | 811 ft | 137 kts | 156° |
| 2026-05-05 17:28 | -4.64752 | 55.49279 | 612 ft | 134 kts | 152° |
| 2026-05-05 17:28 | -4.65528 | 55.49788 | 409 ft | 133 kts | 140° |
| 2026-05-05 17:29 | -4.66185 | 55.50440 | 262 ft | 134 kts | 131° |
| 2026-05-05 17:29 | -4.66745 | 55.51176 | 69 ft | 133 kts | 126° |
| 2026-05-05 17:29 | -4.67225 | 55.51871 | 23 ft | 95 kts | 124° |
| 2026-05-05 17:29 | -4.67448 | 55.52196 | 23 ft | 38 kts | 124° |
| 2026-05-05 17:30 | -4.67597 | 55.52412 | 21 ft | 37 kts | 124° |
| 2026-05-05 17:30 | -4.67704 | 55.52571 | 21 ft | 9 kts | 123° |
| 2026-05-05 17:30 | -4.67728 | 55.52624 | 21 ft | 7 kts | 136° |
| 2026-05-05 17:30 | -4.67736 | 55.52610 | 23 ft | 4 kts | 308° |
| 2026-05-05 17:31 | -4.67712 | 55.52579 | 20 ft | 7 kts | 306° |
| 2026-05-05 17:31 | -4.67678 | 55.52530 | 20 ft | 10 kts | 305° |
| 2026-05-05 17:31 | -4.67636 | 55.52469 | 21 ft | 12 kts | 304° |
| 2026-05-05 17:31 | -4.67586 | 55.52396 | 21 ft | 14 kts | 304° |
| 2026-05-05 17:32 | -4.67525 | 55.52306 | 22 ft | 17 kts | 304° |
| 2026-05-05 17:32 | -4.67453 | 55.52201 | 23 ft | 20 kts | 304° |
| 2026-05-05 17:32 | -4.67369 | 55.52081 | 23 ft | 23 kts | 304° |
| 2026-05-05 17:32 | -4.67272 | 55.51941 | 23 ft | 26 kts | 304° |
| 2026-05-05 17:33 | -4.67164 | 55.51783 | 22 ft | 29 kts | 304° |
| 2026-05-05 17:33 | -4.67042 | 55.51604 | 23 ft | 32 kts | 304° |
| 2026-05-05 17:33 | -4.66929 | 55.51439 | 23 ft | 18 kts | 305° |
| 2026-05-05 17:33 | -4.66902 | 55.51371 | 22 ft | 10 kts | 253° |
| 2026-05-05 17:34 | -4.66970 | 55.51318 | 20 ft | 14 kts | 213° |
| 2026-05-05 17:34 | -4.67026 | 55.51264 | 20 ft | 9 kts | 229° |
| 2026-05-05 17:34 | -4.67069 | 55.51234 | 21 ft | 4 kts | 214° |
| 2026-05-05 17:34 | -4.67086 | 55.51221 | 20 ft | 0 kts | 215° |